»·PEaware :: FFT808 KDEN-KCPR

FFT808 :: KDEN-KCPR

FLIGHT INFORMATION

Flight Status: Arrived
Operator:
Frontier Airlines
More flights by this operator :: More flights under this callsign
Pilot: Ben L. (6391)
Aircraft: AIRBUS A320
(A320)
More flights by this aircraft type
Origin: KDEN Denver Intl
United States
Destination: KCPR Natrona Co Intl
United States
More flights between these airports :: More routes between these airports
Route: RIKKK3 FISAR DDY
File this flight plan on PilotEdge
Remarks:
Altitude:
(Current/Filed)
26,000ft
Speed:
(Current/Filed)
450kts
Departed: 11-May-18 05:00 PM
Arrived: 11-May-18 05:43 PM
Distance/Time
Traveled:
200nm/0:43
Distance/Time
To Go:
Arrived

Flight Plot

Page will automatically refresh every two minutes.

Flight plan parsing failed; only flown route is shown


Map Options




Map Legend


Flown Route
Filed Route
Departure Airport
Arrival Airport
Navaid (VOR, NDB)
Fix

Horizontal Profiles

Position Reports

Time Latitude Longitude Heading Altitude Ground
Speed
11-May-18 16:33 39.853232 -104.673112 28 5440ft 0kts
11-May-18 16:34 39.853232 -104.673112 28 5440ft 0kts
11-May-18 16:35 39.853232 -104.673112 28 5440ft 0kts
11-May-18 16:36 39.853232 -104.673112 28 5440ft 0kts
11-May-18 16:37 39.853232 -104.673112 28 5440ft 0kts
11-May-18 16:38 39.853232 -104.673112 28 5440ft 0kts
11-May-18 16:39 39.853232 -104.673112 28 5440ft 0kts
11-May-18 16:40 39.853232 -104.673112 28 5440ft 0kts
11-May-18 16:41 39.853232 -104.673112 28 5440ft 0kts
11-May-18 16:42 39.853232 -104.673112 28 5440ft 0kts
11-May-18 16:43 39.853232 -104.673112 28 5440ft 0kts
11-May-18 16:44 39.853232 -104.673112 28 5440ft 0kts
11-May-18 16:45 39.853232 -104.673112 28 5440ft 0kts
11-May-18 16:46 39.853232 -104.673112 28 5440ft 0kts
11-May-18 16:47 39.853232 -104.673112 28 5440ft 0kts
11-May-18 16:48 39.852784 -104.672902 288 5440ft 2kts
11-May-18 16:49 39.852769 -104.672620 269 5440ft 0kts
11-May-18 16:50 39.852769 -104.672620 269 5440ft 0kts
11-May-18 16:51 39.852352 -104.671402 88 5440ft 17kts
11-May-18 16:52 39.852122 -104.664854 104 5440ft 17kts
11-May-18 16:53 39.855125 -104.662316 0 5440ft 23kts
11-May-18 16:54 39.863479 -104.662208 359 5440ft 30kts
11-May-18 16:55 39.871544 -104.662120 0 5440ft 27kts
11-May-18 16:56 39.876226 -104.662084 0 5440ft 0kts
11-May-18 16:57 39.877472 -104.661862 62 5440ft 5kts
11-May-18 16:58 39.877562 -104.661197 89 5440ft 0kts
11-May-18 16:59 39.877562 -104.661197 89 5440ft 0kts
11-May-18 17:00 39.877383 -104.636935 92 5695ft 149kts
11-May-18 17:01 39.878747 -104.576903 78 7678ft 205kts
11-May-18 17:02 39.897590 -104.491219 77 9438ft 286kts
11-May-18 17:03 39.946484 -104.401229 34 10410ft 370kts
11-May-18 17:04 40.050028 -104.382168 344 12666ft 400kts
11-May-18 17:05 40.139875 -104.458492 320 15009ft 408kts
11-May-18 17:06 40.229691 -104.543843 320 17149ft 419kts
11-May-18 17:07 40.326930 -104.625738 335 19106ft 436kts
11-May-18 17:08 40.439215 -104.680458 335 20862ft 446kts
11-May-18 17:09 40.554271 -104.736820 334 22492ft 454kts
11-May-18 17:10 40.670781 -104.794083 333 24005ft 461kts
11-May-18 17:11 40.789446 -104.852619 333 25465ft 465kts
11-May-18 17:12 40.909104 -104.911190 333 25987ft 469kts
11-May-18 17:13 41.029075 -104.970137 334 25993ft 470kts
11-May-18 17:14 41.147905 -105.028761 335 25990ft 479kts
11-May-18 17:15 41.270684 -105.089567 335 26025ft 483kts
11-May-18 17:16 41.394635 -105.151210 335 26024ft 485kts
11-May-18 17:17 41.519527 -105.213575 335 25982ft 484kts
11-May-18 17:18 41.639710 -105.286011 329 25947ft 479kts
11-May-18 17:19 41.756356 -105.363784 329 25947ft 478kts
11-May-18 17:20 41.866916 -105.437797 329 25932ft 477kts
11-May-18 17:21 41.982559 -105.515527 329 25926ft 477kts
11-May-18 17:22 42.098870 -105.594026 329 25955ft 477kts
11-May-18 17:23 42.209977 -105.669317 328 25957ft 476kts
11-May-18 17:24 42.325484 -105.747908 328 25959ft 476kts
11-May-18 17:25 42.432614 -105.821056 328 25445ft 441kts
11-May-18 17:26 42.535222 -105.891093 328 23780ft 421kts
11-May-18 17:27 42.636554 -105.961360 328 21777ft 409kts
11-May-18 17:28 42.734008 -106.030961 328 19809ft 398kts
11-May-18 17:29 42.815092 -106.115366 287 18365ft 357kts
11-May-18 17:30 42.804098 -106.236940 249 16843ft 324kts
11-May-18 17:31 42.762875 -106.338221 235 15431ft 304kts
11-May-18 17:32 42.719496 -106.432231 235 14062ft 293kts
11-May-18 17:33 42.677858 -106.522532 235 12926ft 277kts
11-May-18 17:34 42.638377 -106.607752 235 11854ft 264kts
11-May-18 17:35 42.628842 -106.693232 308 10816ft 268kts
11-May-18 17:36 42.695065 -106.705628 12 10042ft 251kts
11-May-18 17:37 42.744515 -106.671790 47 9362ft 246kts
11-May-18 17:38 42.787884 -106.614038 48 8261ft 183kts
11-May-18 17:39 42.818512 -106.573732 48 7376ft 144kts
11-May-18 17:40 42.846526 -106.536834 47 6642ft 139kts
11-May-18 17:41 42.873921 -106.500794 46 5914ft 135kts
11-May-18 17:42 42.899854 -106.466678 43 5356ft 102kts
11-May-18 17:43 42.905186 -106.457144 184 5356ft 17kts

Navigation Log

Ident Type
Flight plan parsing failed, navigation log unavailable